Time;durP1;ratioP1;P1;durP2;ratioP2;P2;SDS_P1;SDS_P2;PMS_P1;PMS_P2;Temp;Humidity;BMP_temperature;BMP_pressure;BME280_temperature;BME280_humidity;BME280_pressure;Samples;Min_cycle;Max_cycle;Signal;HPM_P1;HPM_P2
2023/10/14 00:02:25;;;;;;;4.17;3.97;;;21.40;75.80;;;;;;5068457;28;43939;-69
2023/10/14 00:04:54;;;;;;;3.80;3.60;;;21.50;75.30;;;;;;5068830;28;43370;-69
2023/10/14 00:07:25;;;;;;;3.43;3.33;;;21.50;75.00;;;;;;5068804;28;44018;-70
2023/10/14 00:09:57;;;;;;;3.97;3.73;;;21.50;75.10;;;;;;5068844;28;43829;-69
2023/10/14 00:12:28;;;;;;;3.77;3.67;;;21.40;75.30;;;;;;5068503;28;44007;-69
2023/10/14 00:15:03;;;;;;;4.20;3.90;;;21.30;75.60;;;;;;5068929;28;44086;-69
2023/10/14 00:17:36;;;;;;;4.60;4.20;;;21.30;75.80;;;;;;5069083;28;43538;-71
2023/10/14 00:20:09;;;;;;;4.10;3.90;;;21.30;75.90;;;;;;5068230;28;44063;-71
2023/10/14 00:22:39;;;;;;;3.73;3.63;;;21.30;76.00;;;;;;5066802;28;45346;-71
2023/10/14 00:25:18;;;;;;;4.27;4.07;;;21.20;76.20;;;;;;5068686;28;43489;-71
2023/10/14 00:27:47;;;;;;;3.60;3.50;;;21.20;76.30;;;;;;5069189;28;43334;-70
2023/10/14 00:30:19;;;;;;;3.90;3.80;;;21.20;76.30;;;;;;5067091;28;45774;-70
2023/10/14 00:32:47;;;;;;;4.00;3.80;;;21.20;76.40;;;;;;5066246;28;44985;-73
2023/10/14 00:35:20;;;;;;;3.90;3.63;;;21.10;76.40;;;;;;5068973;28;43445;-70
2023/10/14 00:37:48;;;;;;;3.77;3.57;;;21.10;76.50;;;;;;5066033;28;43431;-70
2023/10/14 00:40:22;;;;;;;4.10;3.90;;;21.10;76.40;;;;;;5067855;28;44034;-70
2023/10/14 00:42:52;;;;;;;3.63;3.40;;;21.10;76.40;;;;;;5067531;28;43556;-70
2023/10/14 00:45:21;;;;;;;3.47;3.27;;;21.10;76.50;;;;;;5066929;28;43930;-70
2023/10/14 00:47:49;;;;;;;3.70;3.37;;;21.10;76.60;;;;;;5067522;28;43360;-70
2023/10/14 00:50:33;;;;;;;6.77;3.80;;;21.00;76.60;;;;;;5066629;28;45859;-70
2023/10/14 00:53:05;;;;;;;4.80;3.50;;;21.10;76.70;;;;;;5065929;28;43368;-70
2023/10/14 00:55:45;;;;;;;3.70;3.40;;;21.20;76.40;;;;;;5070440;28;43450;-66
2023/10/14 00:58:20;;;;;;;3.60;3.40;;;21.30;75.80;;;;;;5071069;28;43615;-66
2023/10/14 01:00:57;;;;;;;4.27;3.70;;;21.50;75.30;;;;;;5070806;28;45779;-66
2023/10/14 01:03:26;;;;;;;3.73;3.43;;;21.50;74.90;;;;;;5070068;28;44727;-68
2023/10/14 01:05:55;;;;;;;3.93;3.63;;;21.50;74.80;;;;;;5087145;28;43422;-66
2023/10/14 01:08:25;;;;;;;3.80;3.57;;;21.50;75.00;;;;;;5070326;28;43653;-66
2023/10/14 01:10:54;;;;;;;3.90;3.53;;;21.40;75.40;;;;;;5069530;28;45642;-67
2023/10/14 01:13:23;;;;;;;4.00;3.70;;;21.30;75.50;;;;;;5072212;28;43881;-67
2023/10/14 01:16:01;;;;;;;5.17;3.40;;;21.30;75.60;;;;;;5069142;28;43583;-66
2023/10/14 01:18:34;;;;;;;3.43;3.33;;;21.30;75.80;;;;;;5068734;28;43578;-66
2023/10/14 01:21:02;;;;;;;4.03;3.83;;;21.20;76.00;;;;;;5070181;28;45981;-66
2023/10/14 01:23:35;;;;;;;3.57;3.40;;;21.20;76.20;;;;;;5069900;28;43816;-66
2023/10/14 01:26:04;;;;;;;3.57;3.43;;;21.20;76.20;;;;;;5070664;28;44416;-67
2023/10/14 01:28:33;;;;;;;3.67;3.47;;;21.20;76.90;;;;;;5069763;28;44068;-66
2023/10/14 01:31:30;;;;;;;3.30;3.10;;;21.20;76.20;;;;;;5070069;28;45991;-67
2023/10/14 01:34:00;;;;;;;3.60;3.50;;;21.10;76.30;;;;;;5066782;28;44730;-67
2023/10/14 01:36:37;;;;;;;3.40;3.30;;;21.10;76.50;;;;;;5067894;28;43506;-65
2023/10/14 01:39:11;;;;;;;3.50;3.40;;;21.10;76.50;;;;;;5069498;28;43510;-65
2023/10/14 01:41:39;;;;;;;3.20;3.10;;;21.20;76.20;;;;;;5066225;28;43926;-68
2023/10/14 01:44:09;;;;;;;3.27;3.00;;;21.30;75.60;;;;;;5068781;28;44061;-73
2023/10/14 01:46:40;;;;;;;3.57;3.37;;;21.50;75.20;;;;;;5082965;28;44380;-72
2023/10/14 01:49:11;;;;;;;3.30;3.20;;;21.50;74.90;;;;;;5066021;28;43419;-72
2023/10/14 01:51:39;;;;;;;3.30;3.20;;;21.50;74.90;;;;;;5082403;28;45973;-71
2023/10/14 01:54:10;;;;;;;3.60;3.40;;;21.50;75.10;;;;;;5065977;28;45479;-72
2023/10/14 01:56:38;;;;;;;3.50;3.20;;;21.40;75.40;;;;;;5081878;28;43953;-71
2023/10/14 01:59:09;;;;;;;4.00;3.73;;;21.30;75.50;;;;;;5061052;28;43857;-71
2023/10/14 02:01:41;;;;;;;3.20;3.10;;;21.30;75.60;;;;;;5065708;28;45887;-72
2023/10/14 02:04:10;;;;;;;3.33;3.23;;;21.20;75.70;;;;;;5065161;28;44818;-66
2023/10/14 02:06:43;;;;;;;3.40;3.17;;;21.20;75.90;;;;;;5070350;28;43895;-67
2023/10/14 02:09:13;;;;;;;3.30;3.10;;;21.20;76.10;;;;;;5085775;28;43522;-66
2023/10/14 02:11:41;;;;;;;3.30;3.20;;;21.20;76.20;;;;;;5068892;28;47314;-66
2023/10/14 02:14:09;;;;;;;3.40;3.20;;;21.20;76.10;;;;;;5085520;28;45153;-66
2023/10/14 02:16:42;;;;;;;3.20;3.10;;;21.20;76.20;;;;;;5068879;28;43972;-66
2023/10/14 02:19:36;;;;;;;3.63;3.43;;;21.10;76.30;;;;;;5069863;28;43583;-66
2023/10/14 02:22:09;;;;;;;3.37;3.23;;;21.10;76.40;;;;;;5069059;28;45501;-66
2023/10/14 02:24:40;;;;;;;3.80;3.50;;;21.10;76.20;;;;;;5068872;28;43839;-66
2023/10/14 02:27:11;;;;;;;3.27;3.13;;;21.20;75.80;;;;;;5069703;28;43423;-66
2023/10/14 02:29:43;;;;;;;3.30;3.10;;;21.40;75.40;;;;;;5069132;28;43447;-65
2023/10/14 02:32:12;;;;;;;3.60;3.40;;;21.50;75.00;;;;;;5084526;28;45972;-66
2023/10/14 02:34:40;;;;;;;3.43;3.33;;;21.50;74.90;;;;;;5069391;28;43381;-66
2023/10/14 02:37:13;;;;;;;3.33;3.23;;;21.50;75.00;;;;;;5068682;28;43517;-66
2023/10/14 02:39:50;;;;;;;2.90;2.80;;;21.40;75.30;;;;;;5069826;28;43511;-65
2023/10/14 02:42:20;;;;;;;3.03;2.90;;;21.30;75.60;;;;;;5069875;28;43909;-66
2023/10/14 02:44:51;;;;;;;3.30;3.10;;;21.30;75.70;;;;;;5066801;28;44831;-65
2023/10/14 02:47:20;;;;;;;2.90;2.80;;;21.30;75.70;;;;;;5069209;28;43455;-66
2023/10/14 02:49:55;;;;;;;3.20;3.10;;;21.20;75.90;;;;;;5069294;28;43489;-67
2023/10/14 02:52:28;;;;;;;3.07;2.97;;;21.20;76.10;;;;;;5068565;28;45867;-67
2023/10/14 02:55:19;;;;;;;3.47;3.27;;;21.20;76.90;;;;;;5073563;28;44860;-66
2023/10/14 02:57:48;;;;;;;3.23;3.03;;;21.20;76.20;;;;;;5070559;28;43394;-65
2023/10/14 03:00:20;;;;;;;3.53;3.33;;;21.30;75.80;;;;;;5068629;28;43505;-66
2023/10/14 03:02:54;;;;;;;3.30;3.10;;;21.40;75.60;;;;;;5065426;28;46061;-65
2023/10/14 03:05:37;;;;;;;3.00;2.90;;;21.40;75.50;;;;;;5068890;28;45160;-66
2023/10/14 03:08:10;;;;;;;3.47;3.23;;;21.30;75.60;;;;;;5069213;28;43394;-65
2023/10/14 03:10:42;;;;;;;3.23;3.13;;;21.30;75.60;;;;;;5069857;28;43403;-66
2023/10/14 03:13:11;;;;;;;3.57;3.47;;;21.30;75.50;;;;;;5065850;28;45938;-66
2023/10/14 03:15:42;;;;;;;3.20;3.03;;;21.30;75.70;;;;;;5068666;28;44728;-67
2023/10/14 03:18:13;;;;;;;3.17;3.07;;;21.20;75.80;;;;;;5068910;28;43425;-65
2023/10/14 03:20:45;;;;;;;3.30;3.20;;;21.20;76.10;;;;;;5072726;28;43597;-66
2023/10/14 03:23:19;;;;;;;3.33;3.10;;;21.20;76.00;;;;;;5073576;28;45667;-67
2023/10/14 03:25:51;;;;;;;3.30;3.20;;;21.20;76.10;;;;;;5071926;28;45111;-66
2023/10/14 03:28:20;;;;;;;2.87;2.67;;;21.20;77.00;;;;;;5072326;28;43475;-65
2023/10/14 03:30:55;;;;;;;3.10;3.00;;;21.10;77.00;;;;;;5074125;28;43455;-66
2023/10/14 03:33:24;;;;;;;3.17;3.07;;;21.10;76.40;;;;;;5073702;28;43673;-66
2023/10/14 03:35:57;;;;;;;3.00;2.90;;;21.10;76.20;;;;;;5073560;28;43517;-66
2023/10/14 03:38:39;;;;;;;2.80;2.70;;;21.10;76.20;;;;;;5072901;28;43531;-68
2023/10/14 03:41:17;;;;;;;2.97;2.87;;;21.10;76.40;;;;;;5072893;28;43447;-67
2023/10/14 03:43:49;;;;;;;3.27;3.10;;;21.10;76.40;;;;;;5072999;28;45358;-66
2023/10/14 03:46:23;;;;;;;2.80;2.70;;;21.10;76.50;;;;;;5072536;28;43439;-66
2023/10/14 03:48:54;;;;;;;2.83;2.73;;;21.20;76.30;;;;;;5073309;28;43415;-65
2023/10/14 03:51:25;;;;;;;3.00;2.80;;;21.30;75.70;;;;;;5072290;28;43459;-66
2023/10/14 03:53:53;;;;;;;2.70;2.60;;;21.50;75.20;;;;;;5069496;28;43599;-65
2023/10/14 03:56:27;;;;;;;3.00;2.90;;;21.60;74.70;;;;;;5072128;28;43457;-66
2023/10/14 03:59:00;;;;;;;2.77;2.63;;;21.60;74.60;;;;;;5070926;28;43952;-66
2023/10/14 04:01:43;;;;;;;3.10;2.90;;;21.60;74.70;;;;;;5086628;28;43518;-65
2023/10/14 04:04:17;;;;;;;2.70;2.70;;;21.50;75.00;;;;;;5072935;28;43532;-70
2023/10/14 04:06:55;;;;;;;3.00;2.90;;;21.40;75.10;;;;;;5088023;28;43426;-71
2023/10/14 04:09:36;;;;;;;2.50;2.40;;;21.40;75.30;;;;;;5088169;28;43535;-70
2023/10/14 04:12:08;;;;;;;2.67;2.57;;;21.40;75.40;;;;;;5086601;28;43661;-70
2023/10/14 04:14:41;;;;;;;2.80;2.70;;;21.30;75.40;;;;;;5088377;28;43866;-69
2023/10/14 04:17:18;;;;;;;2.80;2.70;;;21.30;75.80;;;;;;5088241;28;43353;-70
2023/10/14 04:19:53;;;;;;;2.60;2.50;;;21.20;75.90;;;;;;5087898;28;44044;-70
2023/10/14 04:22:31;;;;;;;2.70;2.60;;;21.20;75.70;;;;;;5086964;28;43442;-69
2023/10/14 04:25:16;;;;;;;2.60;2.50;;;21.20;75.80;;;;;;5083621;28;43780;-69
2023/10/14 04:28:17;;;;;;;2.30;2.30;;;21.20;76.00;;;;;;5088522;28;43868;-68
2023/10/14 04:30:46;;;;;;;2.70;2.60;;;21.20;76.00;;;;;;5087195;28;43443;-69
2023/10/14 04:33:19;;;;;;;2.40;2.40;;;21.20;76.00;;;;;;5087710;28;43375;-69
2023/10/14 04:36:36;;;;;;;2.50;2.50;;;21.30;75.60;;;;;;5086880;28;43640;-69
2023/10/14 04:39:04;;;;;;;2.40;2.40;;;21.50;75.20;;;;;;5087660;28;43364;-69
2023/10/14 04:41:32;;;;;;;2.30;2.30;;;21.60;74.60;;;;;;5082726;28;43355;-70
2023/10/14 04:44:02;;;;;;;2.67;2.57;;;21.60;74.50;;;;;;5087907;28;43442;-70
2023/10/14 04:46:54;;;;;;;2.13;2.13;;;21.50;74.60;;;;;;5084946;28;46024;-69
2023/10/14 04:49:36;;;;;;;2.77;2.57;;;21.50;75.00;;;;;;5084900;28;43419;-70
2023/10/14 04:52:06;;;;;;;2.30;2.20;;;21.40;75.30;;;;;;5086535;28;43498;-69
2023/10/14 04:54:35;;;;;;;2.23;2.17;;;21.30;75.30;;;;;;5088155;28;44698;-69
2023/10/14 04:57:19;;;;;;;2.47;2.40;;;21.30;75.40;;;;;;5088143;28;43668;-69
2023/10/14 04:59:53;;;;;;;2.00;2.00;;;21.30;75.60;;;;;;5087192;28;43415;-70
2023/10/14 05:02:30;;;;;;;2.17;2.13;;;21.30;75.80;;;;;;5087168;28;44062;-70
2023/10/14 05:04:59;;;;;;;2.20;2.20;;;21.20;75.90;;;;;;5086164;28;43433;-70
2023/10/14 05:07:28;;;;;;;2.13;2.03;;;21.20;75.80;;;;;;5087389;28;43926;-70
2023/10/14 05:09:57;;;;;;;1.70;1.70;;;21.20;75.80;;;;;;5087498;28;43419;-70
2023/10/14 05:12:26;;;;;;;1.90;1.90;;;21.20;76.00;;;;;;5086390;28;43415;-70
2023/10/14 05:14:56;;;;;;;2.00;2.00;;;21.20;76.10;;;;;;5075105;28;43503;-70
2023/10/14 05:17:32;;;;;;;2.90;2.10;;;21.20;76.20;;;;;;5067299;28;44013;-70
2023/10/14 05:20:00;;;;;;;2.10;2.10;;;21.30;75.80;;;;;;5063254;28;43400;-70
2023/10/14 05:22:41;;;;;;;2.00;2.00;;;21.40;75.40;;;;;;5067646;28;43424;-70
2023/10/14 05:25:15;;;;;;;2.30;2.10;;;21.50;74.70;;;;;;5067677;28;43940;-70
2023/10/14 05:27:55;;;;;;;2.07;2.07;;;21.60;74.30;;;;;;5066729;28;44897;-70
2023/10/14 05:30:32;;;;;;;2.17;2.07;;;21.60;74.50;;;;;;5067005;28;43425;-70
2023/10/14 05:33:06;;;;;;;2.43;1.97;;;21.50;74.60;;;;;;5062678;28;43402;-69
2023/10/14 05:35:41;;;;;;;2.10;2.00;;;21.50;75.10;;;;;;5067986;28;43436;-71
2023/10/14 05:38:10;;;;;;;2.20;2.20;;;21.40;76.10;;;;;;5067652;28;43606;-69
2023/10/14 05:40:41;;;;;;;2.20;2.20;;;21.30;75.30;;;;;;5067136;28;43336;-69
2023/10/14 05:43:09;;;;;;;1.80;1.80;;;21.30;75.40;;;;;;5067188;28;43424;-69
2023/10/14 05:45:39;;;;;;;2.17;2.00;;;21.30;75.70;;;;;;5066627;28;43474;-70
2023/10/14 05:48:10;;;;;;;2.10;2.00;;;21.20;75.80;;;;;;5064778;28;43885;-70
2023/10/14 05:50:38;;;;;;;2.10;2.00;;;21.20;76.00;;;;;;5067363;28;43452;-71
2023/10/14 05:53:08;;;;;;;1.93;1.93;;;21.20;75.90;;;;;;5066079;28;43344;-69
2023/10/14 05:55:38;;;;;;;1.97;1.97;;;21.20;76.00;;;;;;5066923;28;43498;-69
2023/10/14 05:58:08;;;;;;;2.00;2.00;;;21.20;76.10;;;;;;5066980;28;43619;-69
2023/10/14 06:00:38;;;;;;;1.80;1.80;;;21.20;76.20;;;;;;5065167;28;43943;-70
2023/10/14 06:03:12;;;;;;;1.97;1.97;;;21.20;76.30;;;;;;5066541;28;43430;-70
2023/10/14 06:05:40;;;;;;;2.00;1.90;;;21.20;76.20;;;;;;5067510;28;43340;-70
2023/10/14 06:08:17;;;;;;;1.90;1.90;;;21.20;76.20;;;;;;5067132;28;44742;-69
2023/10/14 06:10:46;;;;;;;1.77;1.77;;;21.20;76.30;;;;;;5066887;28;43880;-69
2023/10/14 06:13:27;;;;;;;2.20;2.10;;;21.10;76.40;;;;;;5067005;28;43446;-70
2023/10/14 06:15:55;;;;;;;1.60;1.60;;;21.10;76.50;;;;;;5067965;28;43562;-69
2023/10/14 06:18:25;;;;;;;1.70;1.70;;;21.20;76.20;;;;;;5066992;28;44129;-69
2023/10/14 06:20:53;;;;;;;1.70;1.70;;;21.40;75.80;;;;;;5066001;28;43374;-72
2023/10/14 06:23:26;;;;;;;1.60;1.60;;;21.60;75.20;;;;;;5066501;28;43529;-69
2023/10/14 06:25:55;;;;;;;1.60;1.60;;;21.70;74.70;;;;;;5066314;28;43960;-71
2023/10/14 06:28:27;;;;;;;1.60;1.60;;;21.70;74.50;;;;;;5066910;28;43616;-71
2023/10/14 06:31:00;;;;;;;1.60;1.60;;;21.60;74.60;;;;;;5066811;28;43434;-71
2023/10/14 06:33:29;;;;;;;1.60;1.60;;;21.50;74.80;;;;;;5066970;28;43578;-71
2023/10/14 06:36:03;;;;;;;1.70;1.70;;;21.50;75.30;;;;;;5067838;28;43404;-71
2023/10/14 06:38:33;;;;;;;1.50;1.50;;;21.40;75.40;;;;;;5066483;28;43963;-70
2023/10/14 06:41:02;;;;;;;2.00;1.90;;;21.40;75.40;;;;;;5066775;28;43429;-70
2023/10/14 06:43:33;;;;;;;1.63;1.63;;;21.40;75.60;;;;;;5066789;28;44430;-65
2023/10/14 06:46:04;;;;;;;1.63;1.63;;;21.30;75.80;;;;;;5067131;28;43403;-71
2023/10/14 06:48:34;;;;;;;1.80;1.80;;;21.30;76.10;;;;;;5065140;28;47244;-71
2023/10/14 06:51:02;;;;;;;1.63;1.63;;;21.20;75.90;;;;;;5066952;28;44158;-71
2023/10/14 06:53:30;;;;;;;1.63;1.57;;;21.30;76.00;;;;;;5067255;28;43542;-71
2023/10/14 06:56:00;;;;;;;1.40;1.40;;;21.20;76.10;;;;;;5069253;28;43476;-71
2023/10/14 06:58:29;;;;;;;1.60;1.60;;;21.20;76.20;;;;;;5064312;28;44092;-71
2023/10/14 07:00:58;;;;;;;1.60;1.60;;;21.20;76.50;;;;;;5064489;28;43336;-70
2023/10/14 07:03:28;;;;;;;1.63;1.63;;;21.20;76.30;;;;;;5066000;28;43890;-70
2023/10/14 07:06:00;;;;;;;1.40;1.40;;;21.20;76.40;;;;;;5070294;28;43554;-70
2023/10/14 07:08:28;;;;;;;1.50;1.50;;;21.20;76.40;;;;;;5069878;28;43767;-71
2023/10/14 07:10:56;;;;;;;1.43;1.43;;;21.20;76.50;;;;;;5067931;28;43449;-71
2023/10/14 07:13:24;;;;;;;1.70;1.70;;;21.10;76.60;;;;;;5065856;28;43463;-70
2023/10/14 07:15:53;;;;;;;1.33;1.33;;;21.20;76.40;;;;;;5083739;28;43493;-71
2023/10/14 07:18:23;;;;;;;1.40;1.40;;;21.30;75.90;;;;;;5069455;28;43595;-70
2023/10/14 07:20:59;;;;;;;1.50;1.40;;;21.50;75.40;;;;;;5066717;28;43532;-71
2023/10/14 07:23:29;;;;;;;3.30;1.50;;;21.60;75.00;;;;;;5068968;28;43530;-70
2023/10/14 07:25:57;;;;;;;1.47;1.40;;;21.60;74.90;;;;;;5069664;28;43446;-72
2023/10/14 07:28:26;;;;;;;1.23;1.23;;;21.60;75.00;;;;;;5070620;28;43696;-73
2023/10/14 07:30:56;;;;;;;1.50;1.50;;;21.50;75.30;;;;;;5065895;28;44142;-72
2023/10/14 07:33:25;;;;;;;3.87;1.50;;;21.40;75.70;;;;;;5070916;28;43462;-72
2023/10/14 07:35:53;;;;;;;1.60;1.50;;;21.40;75.90;;;;;;5069956;28;43821;-71
2023/10/14 07:38:22;;;;;;;1.30;1.30;;;21.40;75.90;;;;;;5070157;28;43990;-72
2023/10/14 07:40:50;;;;;;;1.53;1.37;;;21.30;76.00;;;;;;5070180;28;43416;-71
2023/10/14 07:43:20;;;;;;;3.40;1.63;;;21.30;76.20;;;;;;5069446;28;43501;-72
2023/10/14 07:45:48;;;;;;;3.30;1.73;;;21.20;76.50;;;;;;5069261;28;44010;-71
2023/10/14 07:48:19;;;;;;;1.60;1.50;;;21.30;76.50;;;;;;5068886;28;43607;-72
2023/10/14 07:50:48;;;;;;;2.73;1.30;;;21.40;76.90;;;;;;5070406;28;43532;-72
2023/10/14 07:53:22;;;;;;;1.37;1.37;;;21.40;75.60;;;;;;5068288;28;43336;-72
2023/10/14 07:55:52;;;;;;;3.13;1.27;;;21.40;75.50;;;;;;5068975;28;43726;-72
2023/10/14 07:58:23;;;;;;;1.30;1.30;;;21.40;75.90;;;;;;5069288;28;43658;-72
2023/10/14 08:00:52;;;;;;;1.30;1.30;;;21.40;76.10;;;;;;5069686;28;43422;-72
2023/10/14 08:03:22;;;;;;;1.30;1.30;;;21.40;76.10;;;;;;5069701;28;43464;-72
2023/10/14 08:05:52;;;;;;;1.30;1.30;;;21.40;76.10;;;;;;5070000;28;43965;-72
2023/10/14 08:08:20;;;;;;;1.53;1.37;;;21.30;76.20;;;;;;5068235;28;43631;-72
2023/10/14 08:10:51;;;;;;;1.40;1.40;;;21.30;76.50;;;;;;5063636;28;43852;-72
2023/10/14 08:13:22;;;;;;;1.60;1.50;;;21.20;76.70;;;;;;5069951;28;43433;-71
2023/10/14 08:15:50;;;;;;;1.27;1.27;;;21.30;76.60;;;;;;5070355;28;43432;-72
2023/10/14 08:18:19;;;;;;;1.37;1.27;;;21.50;77.20;;;;;;5068146;28;43810;-71
2023/10/14 08:20:47;;;;;;;1.27;1.27;;;21.50;76.10;;;;;;5069371;28;43445;-72
2023/10/14 08:23:15;;;;;;;1.20;1.20;;;21.50;76.00;;;;;;5068127;28;43447;-72
2023/10/14 08:25:43;;;;;;;1.57;1.47;;;21.50;76.20;;;;;;5068887;28;43404;-72
2023/10/14 08:28:11;;;;;;;1.00;1.00;;;21.50;76.40;;;;;;5069280;28;43628;-72
2023/10/14 08:30:46;;;;;;;1.10;1.10;;;21.50;76.30;;;;;;5069219;28;43394;-72
2023/10/14 08:33:14;;;;;;;1.43;1.37;;;21.40;76.30;;;;;;5064191;28;43396;-72
2023/10/14 08:35:42;;;;;;;1.17;1.17;;;21.40;76.40;;;;;;5069734;28;43490;-71
2023/10/14 08:38:12;;;;;;;1.00;1.00;;;21.30;76.90;;;;;;5069636;28;43870;-72
2023/10/14 08:40:40;;;;;;;1.10;1.10;;;21.30;76.90;;;;;;5069340;28;44094;-72
2023/10/14 08:43:10;;;;;;;1.30;1.20;;;21.30;76.90;;;;;;5069675;28;43366;-72
2023/10/14 08:45:41;;;;;;;1.67;1.57;;;21.30;76.90;;;;;;5067411;28;43595;-67
2023/10/14 08:48:11;;;;;;;2.77;2.00;;;21.20;76.60;;;;;;5073069;28;44188;-67
2023/10/14 08:50:40;;;;;;;5.17;2.00;;;21.20;78.10;;;;;;5071562;28;43438;-67
2023/10/14 08:53:10;;;;;;;2.93;2.27;;;21.30;76.90;;;;;;5073368;28;43436;-67
2023/10/14 08:55:39;;;;;;;4.63;2.67;;;21.40;76.90;;;;;;5068465;28;43374;-66
2023/10/14 08:58:13;;;;;;;4.17;2.87;;;21.50;76.60;;;;;;5068596;28;43992;-67
2023/10/14 09:00:43;;;;;;;7.33;3.40;;;21.50;76.50;;;;;;5071663;28;44079;-67
2023/10/14 09:03:12;;;;;;;5.10;3.50;;;21.40;76.70;;;;;;5071833;28;43838;-67
2023/10/14 09:08:24;;;;;;;7.77;4.13;;;21.40;76.60;;;;;;5085925;28;45652;-70
2023/10/14 09:10:53;;;;;;;8.60;3.93;;;21.40;76.40;;;;;;5087938;28;43971;-69
2023/10/14 09:13:21;;;;;;;11.17;4.87;;;21.30;76.70;;;;;;5087974;28;43320;-69
2023/10/14 09:16:12;;;;;;;12.97;5.40;;;21.30;77.20;;;;;;5087635;28;43354;-69
2023/10/14 09:18:42;;;;;;;13.43;5.80;;;21.30;77.20;;;;;;5091161;28;43858;-69
2023/10/14 09:21:10;;;;;;;9.53;5.07;;;21.40;77.10;;;;;;5089363;28;43740;-69
2023/10/14 09:23:39;;;;;;;13.70;5.83;;;21.40;76.90;;;;;;5088857;28;43427;-68
2023/10/14 09:26:08;;;;;;;13.80;6.57;;;21.40;76.90;;;;;;5085109;28;43567;-70
2023/10/14 09:28:42;;;;;;;15.87;6.43;;;21.30;77.30;;;;;;5089069;28;43709;-71
2023/10/14 09:31:12;;;;;;;13.00;6.20;;;21.40;77.20;;;;;;5088036;28;44662;-70
2023/10/14 09:33:42;;;;;;;12.63;6.17;;;21.40;77.10;;;;;;5089142;28;43303;-70
2023/10/14 09:36:14;;;;;;;10.97;5.90;;;21.30;77.00;;;;;;5089320;28;43432;-70
2023/10/14 09:38:43;;;;;;;14.77;6.60;;;21.30;77.20;;;;;;5082901;28;46103;-70
2023/10/14 09:41:11;;;;;;;12.37;6.40;;;21.30;77.60;;;;;;5088437;28;43431;-70
2023/10/14 09:43:42;;;;;;;17.67;6.87;;;21.30;77.50;;;;;;5089637;28;43351;-70
2023/10/14 09:46:12;;;;;;;10.17;6.00;;;21.30;77.10;;;;;;5088365;28;43449;-70
2023/10/14 09:48:43;;;;;;;12.23;6.40;;;21.20;77.10;;;;;;5088305;28;43785;-70
2023/10/14 09:51:12;;;;;;;17.63;6.90;;;21.20;77.60;;;;;;5089251;28;43498;-71
2023/10/14 09:53:42;;;;;;;16.90;7.13;;;21.20;77.70;;;;;;5085525;28;43414;-69
2023/10/14 09:56:13;;;;;;;13.77;6.87;;;21.30;77.30;;;;;;5089119;28;43346;-70
2023/10/14 09:58:47;;;;;;;14.17;6.97;;;21.50;76.90;;;;;;5087723;28;43663;-70
2023/10/14 10:01:19;;;;;;;10.67;5.93;;;21.60;76.10;;;;;;5088749;28;43371;-69
2023/10/14 10:03:49;;;;;;;14.33;6.63;;;21.70;75.80;;;;;;5088112;28;43343;-69
2023/10/14 10:06:24;;;;;;;12.83;6.50;;;21.70;75.40;;;;;;5089355;28;43375;-69
2023/10/14 10:09:09;;;;;;;12.33;6.53;;;21.70;75.90;;;;;;5082245;28;45594;-69
2023/10/14 10:11:37;;;;;;;16.60;6.50;;;21.60;76.20;;;;;;5081405;28;43407;-69
2023/10/14 10:14:10;;;;;;;10.53;5.77;;;21.60;76.60;;;;;;5085705;28;43428;-70
2023/10/14 10:16:41;;;;;;;8.67;5.70;;;21.50;76.50;;;;;;5086109;28;43430;-69
2023/10/14 10:19:10;;;;;;;11.53;6.23;;;21.50;76.50;;;;;;5088386;28;43603;-69
2023/10/14 10:21:40;;;;;;;8.07;5.30;;;21.50;76.60;;;;;;5088832;28;44015;-70
2023/10/14 10:24:23;;;;;;;11.00;6.00;;;21.40;76.80;;;;;;5085922;28;43466;-69
2023/10/14 10:26:58;;;;;;;8.73;5.13;;;21.40;77.00;;;;;;5087965;28;43434;-68
2023/10/14 10:29:27;;;;;;;10.00;5.40;;;21.40;76.90;;;;;;5093985;28;43618;-68
2023/10/14 10:32:08;;;;;;;8.37;5.50;;;21.40;76.90;;;;;;5092208;28;43956;-69
2023/10/14 10:34:54;;;;;;;10.37;5.47;;;21.30;76.90;;;;;;5089982;28;43463;-69
2023/10/14 10:37:25;;;;;;;9.43;5.50;;;21.30;77.30;;;;;;5088189;28;43493;-68
2023/10/14 10:39:53;;;;;;;6.60;4.83;;;21.30;77.30;;;;;;5089146;28;43944;-69
2023/10/14 10:42:21;;;;;;;9.70;5.33;;;21.40;76.90;;;;;;5088420;28;44724;-69
2023/10/14 10:44:49;;;;;;;7.77;5.17;;;21.50;76.60;;;;;;5092026;28;43410;-70
2023/10/14 10:47:19;;;;;;;8.70;5.33;;;21.50;76.20;;;;;;5090686;28;43414;-70
2023/10/14 10:49:56;;;;;;;10.40;5.70;;;21.50;75.90;;;;;;5087910;28;43923;-70
2023/10/14 10:52:25;;;;;;;8.40;5.00;;;21.50;76.40;;;;;;5087956;28;43362;-69
2023/10/14 10:54:58;;;;;;;7.70;4.87;;;21.50;76.20;;;;;;5089361;28;43459;-70
2023/10/14 10:57:26;;;;;;;5.77;4.10;;;21.50;76.10;;;;;;5092375;28;43625;-69
2023/10/14 10:59:55;;;;;;;6.60;4.33;;;21.50;76.30;;;;;;5091362;28;43852;-69
2023/10/14 11:02:24;;;;;;;7.90;4.70;;;21.50;76.70;;;;;;5092191;28;43392;-69
2023/10/14 11:04:52;;;;;;;9.37;4.70;;;21.40;76.90;;;;;;5080244;28;43396;-66
2023/10/14 11:07:23;;;;;;;7.33;4.50;;;21.40;76.90;;;;;;5077663;28;43732;-67
2023/10/14 11:09:51;;;;;;;6.13;4.13;;;21.40;76.90;;;;;;5072998;28;43639;-66
2023/10/14 11:12:19;;;;;;;5.83;4.17;;;21.40;77.10;;;;;;5069929;28;44800;-66
2023/10/14 11:14:48;;;;;;;4.37;3.97;;;21.40;77.30;;;;;;5075266;28;43485;-66
2023/10/14 11:17:17;;;;;;;5.80;4.47;;;21.30;77.40;;;;;;5072040;28;43500;-67
2023/10/14 11:19:49;;;;;;;6.67;3.90;;;21.30;77.20;;;;;;5072932;28;43716;-66
2023/10/14 11:22:17;;;;;;;4.70;4.17;;;21.40;77.40;;;;;;5065926;28;43367;-67
2023/10/14 11:24:45;;;;;;;4.97;4.20;;;21.30;77.40;;;;;;5070554;28;43477;-71
2023/10/14 11:27:13;;;;;;;5.50;3.70;;;21.30;77.50;;;;;;5064158;28;43327;-71
2023/10/14 11:29:41;;;;;;;5.17;3.80;;;21.30;77.60;;;;;;5069091;28;43939;-71
2023/10/14 11:32:12;;;;;;;4.50;3.53;;;21.40;77.30;;;;;;5065338;28;43456;-70
2023/10/14 11:34:42;;;;;;;4.93;3.90;;;21.50;76.80;;;;;;5067364;28;43558;-70
2023/10/14 11:37:15;;;;;;;4.27;3.93;;;21.70;76.30;;;;;;5069155;28;44112;-70
2023/10/14 11:39:44;;;;;;;4.30;3.87;;;21.70;75.80;;;;;;5068538;28;44208;-70
2023/10/14 11:42:13;;;;;;;3.93;3.63;;;21.80;75.80;;;;;;5069403;28;43565;-70
2023/10/14 11:44:41;;;;;;;4.10;3.70;;;21.70;75.90;;;;;;5068964;28;43362;-70
2023/10/14 11:47:16;;;;;;;4.97;3.97;;;21.60;76.10;;;;;;5070182;28;43539;-70
2023/10/14 11:49:47;;;;;;;3.80;3.30;;;21.60;76.60;;;;;;5066369;28;44370;-70
2023/10/14 11:52:17;;;;;;;4.27;3.43;;;21.50;76.60;;;;;;5068057;28;43438;-70
2023/10/14 11:54:45;;;;;;;4.63;3.50;;;21.50;76.80;;;;;;5069766;28;44025;-70
2023/10/14 11:57:13;;;;;;;3.50;3.30;;;21.50;76.90;;;;;;5070287;28;43506;-71
2023/10/14 11:59:41;;;;;;;3.83;3.50;;;21.40;76.90;;;;;;5068292;28;45847;-71
2023/10/14 12:02:09;;;;;;;3.60;3.30;;;21.40;77.20;;;;;;5069318;28;43437;-70
2023/10/14 12:04:38;;;;;;;3.30;3.00;;;21.40;77.10;;;;;;5070147;28;44017;-70
2023/10/14 12:07:07;;;;;;;3.43;3.17;;;21.40;77.10;;;;;;5070429;28;43392;-69
2023/10/14 12:09:37;;;;;;;3.37;3.17;;;21.40;77.30;;;;;;5069884;28;43653;-70
2023/10/14 12:12:05;;;;;;;6.63;3.10;;;21.40;77.40;;;;;;5069551;28;44333;-70
2023/10/14 12:14:33;;;;;;;6.93;2.70;;;21.40;76.10;;;;;;5068748;28;43534;-72
2023/10/14 12:17:04;;;;;;;5.83;3.10;;;21.40;76.10;;;;;;5070261;28;43381;-71
2023/10/14 12:19:34;;;;;;;5.47;3.50;;;21.50;76.10;;;;;;5062006;28;46067;-72
2023/10/14 12:22:02;;;;;;;4.53;2.73;;;21.60;75.80;;;;;;5069518;28;43441;-71
2023/10/14 12:24:32;;;;;;;3.20;2.90;;;21.80;75.50;;;;;;5066261;28;43459;-71
2023/10/14 12:27:01;;;;;;;4.17;3.13;;;21.80;75.30;;;;;;5062839;28;43422;-71
2023/10/14 12:29:33;;;;;;;3.00;2.77;;;21.80;75.50;;;;;;5069635;28;43614;-71
2023/10/14 12:32:02;;;;;;;3.10;2.80;;;21.70;75.70;;;;;;5067504;28;44573;-72
2023/10/14 12:34:46;;;;;;;3.10;2.90;;;21.60;76.00;;;;;;5068597;28;44030;-65
2023/10/14 12:37:18;;;;;;;3.60;2.57;;;21.60;76.20;;;;;;5072083;28;43659;-66
2023/10/14 12:39:49;;;;;;;5.37;2.47;;;21.60;76.20;;;;;;5071901;28;43694;-66
2023/10/14 12:42:23;;;;;;;2.87;2.67;;;21.50;76.40;;;;;;5071815;28;43504;-65
2023/10/14 12:44:53;;;;;;;2.70;2.50;;;21.50;76.60;;;;;;5072664;28;43422;-66
2023/10/14 12:47:24;;;;;;;3.20;2.90;;;21.50;77.00;;;;;;5072233;28;43458;-68
2023/10/14 12:49:54;;;;;;;2.87;2.57;;;21.50;77.00;;;;;;5072318;28;44165;-65
2023/10/14 12:52:23;;;;;;;4.03;2.70;;;21.50;76.70;;;;;;5070511;28;43450;-67
2023/10/14 12:54:52;;;;;;;2.30;2.20;;;21.50;76.60;;;;;;5071940;28;43422;-66
2023/10/14 12:57:21;;;;;;;2.87;2.57;;;21.50;76.70;;;;;;5072776;28;43454;-68
2023/10/14 12:59:49;;;;;;;2.87;2.47;;;21.50;77.00;;;;;;5070734;28;43889;-67
2023/10/14 13:02:20;;;;;;;2.57;2.37;;;21.50;77.00;;;;;;5071695;28;44056;-68
2023/10/14 13:04:48;;;;;;;2.50;2.40;;;21.50;76.90;;;;;;5069503;28;43392;-67
2023/10/14 13:07:16;;;;;;;2.60;2.50;;;21.50;77.10;;;;;;5067895;28;43979;-67
2023/10/14 13:09:45;;;;;;;3.43;2.77;;;21.50;77.30;;;;;;5072491;28;43599;-66
2023/10/14 13:12:16;;;;;;;2.70;2.50;;;21.40;77.60;;;;;;5070469;28;43451;-66